sensor_id;sensor_type;location;lat;lon;timestamp;P1;durP1;ratioP1;P2;durP2;ratioP2
81716;SDS011;71269;44.108;3.074;2023-08-30T00:01:57;4.35;;;2.30;;
81716;SDS011;71269;44.108;3.074;2023-08-30T00:04:22;6.32;;;2.10;;
81716;SDS011;71269;44.108;3.074;2023-08-30T00:06:48;4.97;;;2.40;;
81716;SDS011;71269;44.108;3.074;2023-08-30T00:09:13;5.10;;;2.38;;
81716;SDS011;71269;44.108;3.074;2023-08-30T00:11:39;4.57;;;2.40;;
81716;SDS011;71269;44.108;3.074;2023-08-30T00:14:05;5.97;;;2.45;;
81716;SDS011;71269;44.108;3.074;2023-08-30T00:16:34;7.45;;;2.50;;
81716;SDS011;71269;44.108;3.074;2023-08-30T00:19:00;6.18;;;2.40;;
81716;SDS011;71269;44.108;3.074;2023-08-30T00:21:26;6.50;;;2.45;;
81716;SDS011;71269;44.108;3.074;2023-08-30T00:23:52;5.68;;;2.42;;
81716;SDS011;71269;44.108;3.074;2023-08-30T00:26:18;6.25;;;2.67;;
81716;SDS011;71269;44.108;3.074;2023-08-30T00:28:43;8.38;;;2.75;;
81716;SDS011;71269;44.108;3.074;2023-08-30T00:31:08;4.57;;;2.40;;
81716;SDS011;71269;44.108;3.074;2023-08-30T00:33:34;5.50;;;2.63;;
81716;SDS011;71269;44.108;3.074;2023-08-30T00:35:59;5.15;;;2.50;;
81716;SDS011;71269;44.108;3.074;2023-08-30T00:38:28;6.90;;;2.40;;
81716;SDS011;71269;44.108;3.074;2023-08-30T00:40:53;5.15;;;2.60;;
81716;SDS011;71269;44.108;3.074;2023-08-30T00:43:19;5.30;;;2.40;;
81716;SDS011;71269;44.108;3.074;2023-08-30T00:45:45;5.68;;;2.40;;
81716;SDS011;71269;44.108;3.074;2023-08-30T00:48:11;4.97;;;2.35;;
81716;SDS011;71269;44.108;3.074;2023-08-30T00:50:37;4.78;;;2.40;;
81716;SDS011;71269;44.108;3.074;2023-08-30T00:53:03;4.95;;;2.47;;
81716;SDS011;71269;44.108;3.074;2023-08-30T00:55:31;5.00;;;2.55;;
81716;SDS011;71269;44.108;3.074;2023-08-30T00:57:58;6.30;;;2.72;;
81716;SDS011;71269;44.108;3.074;2023-08-30T01:00:24;5.45;;;2.33;;
81716;SDS011;71269;44.108;3.074;2023-08-30T01:02:52;5.97;;;2.53;;
81716;SDS011;71269;44.108;3.074;2023-08-30T01:05:18;5.07;;;2.55;;
81716;SDS011;71269;44.108;3.074;2023-08-30T01:07:44;5.35;;;2.55;;
81716;SDS011;71269;44.108;3.074;2023-08-30T01:10:09;5.50;;;2.53;;
81716;SDS011;71269;44.108;3.074;2023-08-30T01:13:09;7.00;;;2.80;;
81716;SDS011;71269;44.108;3.074;2023-08-30T01:15:31;6.13;;;2.58;;
81716;SDS011;71269;44.108;3.074;2023-08-30T01:17:57;6.75;;;2.80;;
81716;SDS011;71269;44.108;3.074;2023-08-30T01:20:23;6.57;;;2.50;;
81716;SDS011;71269;44.108;3.074;2023-08-30T01:23:06;7.82;;;2.75;;
81716;SDS011;71269;44.108;3.074;2023-08-30T01:28:09;4.32;;;2.40;;
81716;SDS011;71269;44.108;3.074;2023-08-30T01:30:35;7.43;;;3.17;;
81716;SDS011;71269;44.108;3.074;2023-08-30T01:33:02;4.97;;;2.45;;
81716;SDS011;71269;44.108;3.074;2023-08-30T01:35:29;4.72;;;2.35;;
81716;SDS011;71269;44.108;3.074;2023-08-30T01:37:58;5.28;;;2.30;;
81716;SDS011;71269;44.108;3.074;2023-08-30T01:40:24;6.00;;;2.42;;
81716;SDS011;71269;44.108;3.074;2023-08-30T01:42:50;6.53;;;2.90;;
81716;SDS011;71269;44.108;3.074;2023-08-30T01:45:15;5.93;;;2.90;;
81716;SDS011;71269;44.108;3.074;2023-08-30T01:47:42;6.32;;;2.80;;
81716;SDS011;71269;44.108;3.074;2023-08-30T01:50:09;5.28;;;2.20;;
81716;SDS011;71269;44.108;3.074;2023-08-30T01:52:34;7.15;;;3.10;;
81716;SDS011;71269;44.108;3.074;2023-08-30T01:55:02;6.88;;;2.70;;
81716;SDS011;71269;44.108;3.074;2023-08-30T01:57:27;5.50;;;2.35;;
81716;SDS011;71269;44.108;3.074;2023-08-30T01:59:53;7.68;;;2.60;;
81716;SDS011;71269;44.108;3.074;2023-08-30T02:02:18;8.57;;;3.17;;
81716;SDS011;71269;44.108;3.074;2023-08-30T02:04:44;5.72;;;2.53;;
81716;SDS011;71269;44.108;3.074;2023-08-30T02:07:35;5.45;;;2.63;;
81716;SDS011;71269;44.108;3.074;2023-08-30T02:10:06;8.38;;;2.72;;
81716;SDS011;71269;44.108;3.074;2023-08-30T02:12:47;6.85;;;2.88;;
81716;SDS011;71269;44.108;3.074;2023-08-30T02:15:13;6.45;;;2.80;;
81716;SDS011;71269;44.108;3.074;2023-08-30T02:17:39;6.47;;;2.72;;
81716;SDS011;71269;44.108;3.074;2023-08-30T02:20:05;5.93;;;2.90;;
81716;SDS011;71269;44.108;3.074;2023-08-30T02:22:32;5.75;;;2.40;;
81716;SDS011;71269;44.108;3.074;2023-08-30T02:24:58;6.93;;;2.70;;
81716;SDS011;71269;44.108;3.074;2023-08-30T02:27:24;6.68;;;2.97;;
81716;SDS011;71269;44.108;3.074;2023-08-30T02:29:49;5.88;;;2.60;;
81716;SDS011;71269;44.108;3.074;2023-08-30T02:32:15;6.60;;;2.75;;
81716;SDS011;71269;44.108;3.074;2023-08-30T02:34:45;5.43;;;2.38;;
81716;SDS011;71269;44.108;3.074;2023-08-30T02:37:11;5.50;;;2.40;;
81716;SDS011;71269;44.108;3.074;2023-08-30T02:39:36;6.65;;;2.88;;
81716;SDS011;71269;44.108;3.074;2023-08-30T02:42:01;8.60;;;2.72;;
81716;SDS011;71269;44.108;3.074;2023-08-30T02:44:27;6.47;;;2.60;;
81716;SDS011;71269;44.108;3.074;2023-08-30T02:46:52;6.70;;;2.58;;
81716;SDS011;71269;44.108;3.074;2023-08-30T02:49:18;7.90;;;2.67;;
81716;SDS011;71269;44.108;3.074;2023-08-30T02:51:43;10.48;;;3.45;;
81716;SDS011;71269;44.108;3.074;2023-08-30T02:54:08;5.35;;;3.10;;
81716;SDS011;71269;44.108;3.074;2023-08-30T02:56:34;5.93;;;2.80;;
81716;SDS011;71269;44.108;3.074;2023-08-30T02:58:59;5.65;;;2.47;;
81716;SDS011;71269;44.108;3.074;2023-08-30T03:01:24;6.15;;;2.75;;
81716;SDS011;71269;44.108;3.074;2023-08-30T03:03:50;7.07;;;3.28;;
81716;SDS011;71269;44.108;3.074;2023-08-30T03:06:15;6.65;;;2.80;;
81716;SDS011;71269;44.108;3.074;2023-08-30T03:08:40;5.75;;;3.33;;
81716;SDS011;71269;44.108;3.074;2023-08-30T03:11:09;7.22;;;3.17;;
81716;SDS011;71269;44.108;3.074;2023-08-30T03:13:36;6.57;;;2.90;;
81716;SDS011;71269;44.108;3.074;2023-08-30T03:16:02;7.68;;;2.85;;
81716;SDS011;71269;44.108;3.074;2023-08-30T03:18:36;7.55;;;2.60;;
81716;SDS011;71269;44.108;3.074;2023-08-30T03:21:01;8.27;;;2.65;;
81716;SDS011;71269;44.108;3.074;2023-08-30T03:23:27;5.63;;;2.78;;
81716;SDS011;71269;44.108;3.074;2023-08-30T03:25:53;7.30;;;3.28;;
81716;SDS011;71269;44.108;3.074;2023-08-30T03:28:18;7.85;;;2.90;;
81716;SDS011;71269;44.108;3.074;2023-08-30T03:30:43;4.78;;;2.97;;
81716;SDS011;71269;44.108;3.074;2023-08-30T03:33:09;6.47;;;3.10;;
81716;SDS011;71269;44.108;3.074;2023-08-30T03:35:34;5.93;;;2.97;;
81716;SDS011;71269;44.108;3.074;2023-08-30T03:38:00;7.63;;;2.78;;
81716;SDS011;71269;44.108;3.074;2023-08-30T03:40:25;6.65;;;3.08;;
81716;SDS011;71269;44.108;3.074;2023-08-30T03:42:52;8.30;;;3.22;;
81716;SDS011;71269;44.108;3.074;2023-08-30T03:45:17;5.75;;;2.85;;
81716;SDS011;71269;44.108;3.074;2023-08-30T03:47:43;5.28;;;2.72;;
81716;SDS011;71269;44.108;3.074;2023-08-30T03:50:08;5.90;;;3.25;;
81716;SDS011;71269;44.108;3.074;2023-08-30T03:52:34;5.47;;;3.13;;
81716;SDS011;71269;44.108;3.074;2023-08-30T03:55:00;7.03;;;2.90;;
81716;SDS011;71269;44.108;3.074;2023-08-30T03:57:25;5.55;;;2.85;;
81716;SDS011;71269;44.108;3.074;2023-08-30T03:59:51;7.25;;;3.05;;
81716;SDS011;71269;44.108;3.074;2023-08-30T04:02:16;6.57;;;2.97;;
81716;SDS011;71269;44.108;3.074;2023-08-30T04:04:42;6.72;;;3.22;;
81716;SDS011;71269;44.108;3.074;2023-08-30T04:07:07;6.28;;;3.20;;
81716;SDS011;71269;44.108;3.074;2023-08-30T04:09:32;6.07;;;3.00;;
81716;SDS011;71269;44.108;3.074;2023-08-30T04:11:58;6.82;;;2.90;;
81716;SDS011;71269;44.108;3.074;2023-08-30T04:14:25;8.85;;;3.03;;
81716;SDS011;71269;44.108;3.074;2023-08-30T04:16:51;7.25;;;2.97;;
81716;SDS011;71269;44.108;3.074;2023-08-30T04:19:17;6.80;;;3.17;;
81716;SDS011;71269;44.108;3.074;2023-08-30T04:21:42;6.47;;;3.20;;
81716;SDS011;71269;44.108;3.074;2023-08-30T04:24:08;5.85;;;2.95;;
81716;SDS011;71269;44.108;3.074;2023-08-30T04:26:33;6.32;;;3.10;;
81716;SDS011;71269;44.108;3.074;2023-08-30T04:28:59;6.53;;;3.70;;
81716;SDS011;71269;44.108;3.074;2023-08-30T04:31:24;8.50;;;3.03;;
81716;SDS011;71269;44.108;3.074;2023-08-30T04:33:49;5.68;;;2.75;;
81716;SDS011;71269;44.108;3.074;2023-08-30T04:36:17;5.63;;;2.90;;
81716;SDS011;71269;44.108;3.074;2023-08-30T04:38:42;5.97;;;2.85;;
81716;SDS011;71269;44.108;3.074;2023-08-30T04:41:08;8.52;;;3.10;;
81716;SDS011;71269;44.108;3.074;2023-08-30T04:43:33;7.57;;;2.85;;
81716;SDS011;71269;44.108;3.074;2023-08-30T04:45:58;6.53;;;3.15;;
81716;SDS011;71269;44.108;3.074;2023-08-30T04:48:24;11.13;;;3.55;;
81716;SDS011;71269;44.108;3.074;2023-08-30T04:50:57;6.40;;;2.80;;
81716;SDS011;71269;44.108;3.074;2023-08-30T04:53:31;6.43;;;3.08;;
81716;SDS011;71269;44.108;3.074;2023-08-30T04:55:57;9.50;;;3.10;;
81716;SDS011;71269;44.108;3.074;2023-08-30T04:58:22;6.68;;;3.00;;
81716;SDS011;71269;44.108;3.074;2023-08-30T05:00:47;7.75;;;3.20;;
81716;SDS011;71269;44.108;3.074;2023-08-30T05:03:13;9.00;;;2.90;;
81716;SDS011;71269;44.108;3.074;2023-08-30T05:05:38;7.15;;;3.05;;
81716;SDS011;71269;44.108;3.074;2023-08-30T05:08:04;6.47;;;3.33;;
81716;SDS011;71269;44.108;3.074;2023-08-30T05:10:29;6.97;;;2.90;;
81716;SDS011;71269;44.108;3.074;2023-08-30T05:12:55;8.73;;;3.60;;
81716;SDS011;71269;44.108;3.074;2023-08-30T05:15:20;8.60;;;2.97;;
81716;SDS011;71269;44.108;3.074;2023-08-30T05:17:46;7.07;;;3.08;;
81716;SDS011;71269;44.108;3.074;2023-08-30T05:20:12;7.03;;;3.15;;
81716;SDS011;71269;44.108;3.074;2023-08-30T05:22:37;8.50;;;3.63;;
81716;SDS011;71269;44.108;3.074;2023-08-30T05:25:03;8.85;;;2.90;;
81716;SDS011;71269;44.108;3.074;2023-08-30T05:27:29;6.75;;;2.90;;
81716;SDS011;71269;44.108;3.074;2023-08-30T05:29:54;7.10;;;3.03;;
81716;SDS011;71269;44.108;3.074;2023-08-30T05:32:21;7.47;;;3.15;;
81716;SDS011;71269;44.108;3.074;2023-08-30T05:34:46;7.45;;;3.45;;
81716;SDS011;71269;44.108;3.074;2023-08-30T05:37:12;7.65;;;3.25;;
81716;SDS011;71269;44.108;3.074;2023-08-30T05:39:37;6.35;;;3.10;;
81716;SDS011;71269;44.108;3.074;2023-08-30T05:42:03;7.40;;;3.05;;
81716;SDS011;71269;44.108;3.074;2023-08-30T05:44:28;8.10;;;3.10;;
81716;SDS011;71269;44.108;3.074;2023-08-30T05:46:54;5.25;;;2.90;;
81716;SDS011;71269;44.108;3.074;2023-08-30T05:49:19;6.60;;;2.78;;
81716;SDS011;71269;44.108;3.074;2023-08-30T05:51:45;7.45;;;2.95;;
81716;SDS011;71269;44.108;3.074;2023-08-30T05:54:10;7.95;;;3.40;;
81716;SDS011;71269;44.108;3.074;2023-08-30T05:56:35;6.88;;;3.17;;
81716;SDS011;71269;44.108;3.074;2023-08-30T05:59:01;7.55;;;3.45;;
81716;SDS011;71269;44.108;3.074;2023-08-30T06:01:26;6.50;;;3.28;;
81716;SDS011;71269;44.108;3.074;2023-08-30T06:03:52;8.07;;;3.55;;
81716;SDS011;71269;44.108;3.074;2023-08-30T06:06:17;6.90;;;3.20;;
81716;SDS011;71269;44.108;3.074;2023-08-30T06:08:42;5.50;;;3.03;;
81716;SDS011;71269;44.108;3.074;2023-08-30T06:11:08;6.45;;;3.45;;
81716;SDS011;71269;44.108;3.074;2023-08-30T06:13:33;8.27;;;3.40;;
81716;SDS011;71269;44.108;3.074;2023-08-30T06:15:59;8.45;;;3.22;;
81716;SDS011;71269;44.108;3.074;2023-08-30T06:18:24;7.95;;;3.60;;
81716;SDS011;71269;44.108;3.074;2023-08-30T06:20:51;7.55;;;3.20;;
81716;SDS011;71269;44.108;3.074;2023-08-30T06:23:18;7.32;;;3.20;;
81716;SDS011;71269;44.108;3.074;2023-08-30T06:25:43;9.02;;;3.47;;
81716;SDS011;71269;44.108;3.074;2023-08-30T06:28:09;9.65;;;3.85;;
81716;SDS011;71269;44.108;3.074;2023-08-30T06:30:34;9.48;;;3.80;;
81716;SDS011;71269;44.108;3.074;2023-08-30T06:33:00;8.50;;;3.65;;
81716;SDS011;71269;44.108;3.074;2023-08-30T06:35:25;6.43;;;3.53;;
81716;SDS011;71269;44.108;3.074;2023-08-30T06:37:51;8.60;;;3.70;;
81716;SDS011;71269;44.108;3.074;2023-08-30T06:40:18;7.03;;;3.50;;
81716;SDS011;71269;44.108;3.074;2023-08-30T06:42:43;7.38;;;3.33;;
81716;SDS011;71269;44.108;3.074;2023-08-30T06:45:09;7.25;;;3.22;;
81716;SDS011;71269;44.108;3.074;2023-08-30T06:47:34;13.52;;;4.20;;
81716;SDS011;71269;44.108;3.074;2023-08-30T06:50:00;6.95;;;3.67;;
81716;SDS011;71269;44.108;3.074;2023-08-30T06:52:26;10.50;;;4.03;;
81716;SDS011;71269;44.108;3.074;2023-08-30T06:54:51;6.80;;;3.13;;
81716;SDS011;71269;44.108;3.074;2023-08-30T06:57:17;6.15;;;3.25;;
81716;SDS011;71269;44.108;3.074;2023-08-30T06:59:42;8.20;;;3.40;;
81716;SDS011;71269;44.108;3.074;2023-08-30T07:02:08;7.82;;;3.17;;
81716;SDS011;71269;44.108;3.074;2023-08-30T07:04:33;6.97;;;3.60;;
81716;SDS011;71269;44.108;3.074;2023-08-30T07:06:58;6.38;;;3.40;;
81716;SDS011;71269;44.108;3.074;2023-08-30T07:09:24;7.75;;;3.33;;
81716;SDS011;71269;44.108;3.074;2023-08-30T07:11:57;6.18;;;3.25;;
81716;SDS011;71269;44.108;3.074;2023-08-30T07:14:23;6.20;;;3.35;;
81716;SDS011;71269;44.108;3.074;2023-08-30T07:16:48;9.05;;;3.50;;
81716;SDS011;71269;44.108;3.074;2023-08-30T07:19:15;6.28;;;3.53;;
81716;SDS011;71269;44.108;3.074;2023-08-30T07:21:41;6.95;;;3.72;;
81716;SDS011;71269;44.108;3.074;2023-08-30T07:24:07;6.93;;;3.38;;
81716;SDS011;71269;44.108;3.074;2023-08-30T07:26:33;6.47;;;3.60;;
81716;SDS011;71269;44.108;3.074;2023-08-30T07:28:58;7.38;;;3.33;;
81716;SDS011;71269;44.108;3.074;2023-08-30T07:31:23;8.20;;;3.33;;
81716;SDS011;71269;44.108;3.074;2023-08-30T07:33:49;8.65;;;3.85;;
81716;SDS011;71269;44.108;3.074;2023-08-30T07:36:14;7.13;;;3.60;;
81716;SDS011;71269;44.108;3.074;2023-08-30T07:38:40;8.75;;;3.63;;
81716;SDS011;71269;44.108;3.074;2023-08-30T07:41:05;7.75;;;3.40;;
81716;SDS011;71269;44.108;3.074;2023-08-30T07:43:30;10.13;;;3.28;;
81716;SDS011;71269;44.108;3.074;2023-08-30T07:45:57;7.28;;;3.20;;
81716;SDS011;71269;44.108;3.074;2023-08-30T07:48:23;8.60;;;3.50;;
81716;SDS011;71269;44.108;3.074;2023-08-30T07:50:49;6.63;;;3.15;;
81716;SDS011;71269;44.108;3.074;2023-08-30T07:53:14;8.88;;;2.97;;
81716;SDS011;71269;44.108;3.074;2023-08-30T07:55:39;6.22;;;3.22;;
81716;SDS011;71269;44.108;3.074;2023-08-30T07:58:05;6.10;;;3.08;;
81716;SDS011;71269;44.108;3.074;2023-08-30T08:00:30;8.15;;;3.08;;
81716;SDS011;71269;44.108;3.074;2023-08-30T08:02:56;7.03;;;3.08;;
81716;SDS011;71269;44.108;3.074;2023-08-30T08:05:21;20.58;;;4.88;;
81716;SDS011;71269;44.108;3.074;2023-08-30T08:07:52;8.00;;;3.33;;
81716;SDS011;71269;44.108;3.074;2023-08-30T08:10:17;6.40;;;3.33;;
81716;SDS011;71269;44.108;3.074;2023-08-30T08:12:43;4.90;;;2.83;;
81716;SDS011;71269;44.108;3.074;2023-08-30T08:15:08;6.90;;;3.00;;
81716;SDS011;71269;44.108;3.074;2023-08-30T08:17:34;9.88;;;3.20;;
81716;SDS011;71269;44.108;3.074;2023-08-30T08:20:00;6.97;;;3.13;;
81716;SDS011;71269;44.108;3.074;2023-08-30T08:22:25;5.45;;;2.95;;
81716;SDS011;71269;44.108;3.074;2023-08-30T08:24:50;5.75;;;3.20;;
81716;SDS011;71269;44.108;3.074;2023-08-30T08:27:16;6.78;;;2.97;;
81716;SDS011;71269;44.108;3.074;2023-08-30T08:29:42;5.68;;;3.00;;
81716;SDS011;71269;44.108;3.074;2023-08-30T08:32:07;6.47;;;3.00;;
81716;SDS011;71269;44.108;3.074;2023-08-30T08:34:33;5.43;;;2.90;;
81716;SDS011;71269;44.108;3.074;2023-08-30T08:36:59;6.55;;;2.72;;
81716;SDS011;71269;44.108;3.074;2023-08-30T08:39:24;5.13;;;2.45;;
81716;SDS011;71269;44.108;3.074;2023-08-30T08:41:50;6.05;;;2.80;;
81716;SDS011;71269;44.108;3.074;2023-08-30T08:44:18;8.23;;;3.20;;
81716;SDS011;71269;44.108;3.074;2023-08-30T08:46:44;6.03;;;3.20;;
81716;SDS011;71269;44.108;3.074;2023-08-30T08:49:12;5.20;;;3.00;;
81716;SDS011;71269;44.108;3.074;2023-08-30T08:51:42;9.27;;;3.17;;
81716;SDS011;71269;44.108;3.074;2023-08-30T08:54:08;7.63;;;3.08;;
81716;SDS011;71269;44.108;3.074;2023-08-30T08:56:34;6.65;;;3.63;;
81716;SDS011;71269;44.108;3.074;2023-08-30T08:59:00;7.00;;;3.35;;
81716;SDS011;71269;44.108;3.074;2023-08-30T09:01:26;5.68;;;2.95;;
81716;SDS011;71269;44.108;3.074;2023-08-30T09:03:52;5.03;;;2.70;;
81716;SDS011;71269;44.108;3.074;2023-08-30T09:06:17;8.02;;;3.08;;
81716;SDS011;71269;44.108;3.074;2023-08-30T09:08:43;4.88;;;2.42;;
81716;SDS011;71269;44.108;3.074;2023-08-30T09:11:08;5.18;;;2.65;;
81716;SDS011;71269;44.108;3.074;2023-08-30T09:13:34;5.70;;;2.63;;
81716;SDS011;71269;44.108;3.074;2023-08-30T09:16:00;5.50;;;2.95;;
81716;SDS011;71269;44.108;3.074;2023-08-30T09:18:27;3.70;;;2.15;;
81716;SDS011;71269;44.108;3.074;2023-08-30T09:21:04;6.20;;;2.50;;
81716;SDS011;71269;44.108;3.074;2023-08-30T09:23:30;4.97;;;2.20;;
81716;SDS011;71269;44.108;3.074;2023-08-30T09:25:55;4.07;;;2.38;;
81716;SDS011;71269;44.108;3.074;2023-08-30T09:28:21;5.45;;;2.80;;
81716;SDS011;71269;44.108;3.074;2023-08-30T09:30:49;4.68;;;2.88;;
81716;SDS011;71269;44.108;3.074;2023-08-30T09:33:15;4.93;;;2.50;;
81716;SDS011;71269;44.108;3.074;2023-08-30T09:35:45;6.68;;;2.58;;
81716;SDS011;71269;44.108;3.074;2023-08-30T09:38:17;6.32;;;2.42;;
81716;SDS011;71269;44.108;3.074;2023-08-30T09:40:43;3.97;;;2.20;;
81716;SDS011;71269;44.108;3.074;2023-08-30T09:43:09;6.55;;;2.20;;
81716;SDS011;71269;44.108;3.074;2023-08-30T09:45:35;6.13;;;2.17;;
81716;SDS011;71269;44.108;3.074;2023-08-30T09:48:01;5.40;;;2.13;;
81716;SDS011;71269;44.108;3.074;2023-08-30T09:50:27;4.32;;;2.28;;
81716;SDS011;71269;44.108;3.074;2023-08-30T09:52:54;4.05;;;2.03;;
81716;SDS011;71269;44.108;3.074;2023-08-30T09:55:20;6.20;;;2.25;;
81716;SDS011;71269;44.108;3.074;2023-08-30T09:57:46;3.90;;;2.17;;
81716;SDS011;71269;44.108;3.074;2023-08-30T10:00:13;4.40;;;2.40;;
81716;SDS011;71269;44.108;3.074;2023-08-30T10:02:42;5.40;;;2.20;;
81716;SDS011;71269;44.108;3.074;2023-08-30T10:05:09;5.70;;;2.03;;
81716;SDS011;71269;44.108;3.074;2023-08-30T10:07:35;5.43;;;2.40;;
81716;SDS011;71269;44.108;3.074;2023-08-30T10:10:02;5.05;;;2.00;;
81716;SDS011;71269;44.108;3.074;2023-08-30T10:12:29;5.45;;;2.30;;
81716;SDS011;71269;44.108;3.074;2023-08-30T10:14:57;4.13;;;1.95;;
81716;SDS011;71269;44.108;3.074;2023-08-30T10:17:22;4.53;;;2.10;;
81716;SDS011;71269;44.108;3.074;2023-08-30T10:19:51;4.65;;;2.00;;
81716;SDS011;71269;44.108;3.074;2023-08-30T10:22:17;4.38;;;2.33;;
81716;SDS011;71269;44.108;3.074;2023-08-30T10:27:13;5.65;;;2.10;;
81716;SDS011;71269;44.108;3.074;2023-08-30T10:29:40;4.82;;;2.13;;
81716;SDS011;71269;44.108;3.074;2023-08-30T10:32:06;4.18;;;2.10;;
81716;SDS011;71269;44.108;3.074;2023-08-30T10:34:32;3.70;;;1.98;;
81716;SDS011;71269;44.108;3.074;2023-08-30T10:36:59;5.72;;;2.40;;
81716;SDS011;71269;44.108;3.074;2023-08-30T10:39:34;4.70;;;2.10;;
81716;SDS011;71269;44.108;3.074;2023-08-30T10:42:01;6.10;;;2.13;;
81716;SDS011;71269;44.108;3.074;2023-08-30T10:44:31;5.25;;;1.80;;
81716;SDS011;71269;44.108;3.074;2023-08-30T10:46:57;4.60;;;1.92;;
81716;SDS011;71269;44.108;3.074;2023-08-30T10:49:22;4.57;;;2.28;;
81716;SDS011;71269;44.108;3.074;2023-08-30T10:51:55;4.07;;;1.90;;
81716;SDS011;71269;44.108;3.074;2023-08-30T10:54:22;3.65;;;2.10;;
81716;SDS011;71269;44.108;3.074;2023-08-30T10:56:57;4.10;;;2.03;;
81716;SDS011;71269;44.108;3.074;2023-08-30T10:59:25;4.15;;;2.20;;
81716;SDS011;71269;44.108;3.074;2023-08-30T11:01:51;3.78;;;1.98;;
81716;SDS011;71269;44.108;3.074;2023-08-30T11:04:17;5.88;;;2.60;;
81716;SDS011;71269;44.108;3.074;2023-08-30T11:06:44;4.03;;;2.08;;
81716;SDS011;71269;44.108;3.074;2023-08-30T11:09:12;4.20;;;2.20;;
81716;SDS011;71269;44.108;3.074;2023-08-30T11:11:38;5.82;;;2.35;;
81716;SDS011;71269;44.108;3.074;2023-08-30T11:14:07;5.75;;;2.30;;
81716;SDS011;71269;44.108;3.074;2023-08-30T11:16:34;5.47;;;2.20;;
81716;SDS011;71269;44.108;3.074;2023-08-30T11:19:00;5.55;;;2.25;;
81716;SDS011;71269;44.108;3.074;2023-08-30T11:21:28;5.18;;;2.35;;
81716;SDS011;71269;44.108;3.074;2023-08-30T11:23:54;5.03;;;2.28;;
81716;SDS011;71269;44.108;3.074;2023-08-30T11:26:19;4.32;;;2.25;;
81716;SDS011;71269;44.108;3.074;2023-08-30T11:28:45;5.00;;;2.30;;
81716;SDS011;71269;44.108;3.074;2023-08-30T11:31:23;4.18;;;2.20;;
81716;SDS011;71269;44.108;3.074;2023-08-30T11:33:52;4.03;;;2.10;;
81716;SDS011;71269;44.108;3.074;2023-08-30T11:36:21;5.80;;;2.45;;
81716;SDS011;71269;44.108;3.074;2023-08-30T11:38:55;3.85;;;2.30;;
81716;SDS011;71269;44.108;3.074;2023-08-30T11:41:22;4.40;;;2.20;;
81716;SDS011;71269;44.108;3.074;2023-08-30T11:43:48;4.63;;;2.30;;
81716;SDS011;71269;44.108;3.074;2023-08-30T11:46:14;4.75;;;2.40;;
81716;SDS011;71269;44.108;3.074;2023-08-30T11:48:39;4.15;;;2.15;;
81716;SDS011;71269;44.108;3.074;2023-08-30T11:51:06;4.07;;;1.90;;
81716;SDS011;71269;44.108;3.074;2023-08-30T11:53:32;3.63;;;1.80;;
81716;SDS011;71269;44.108;3.074;2023-08-30T11:55:57;4.47;;;2.15;;
81716;SDS011;71269;44.108;3.074;2023-08-30T11:58:22;3.88;;;2.10;;
81716;SDS011;71269;44.108;3.074;2023-08-30T12:00:51;5.63;;;2.47;;
81716;SDS011;71269;44.108;3.074;2023-08-30T12:03:19;4.97;;;2.80;;
81716;SDS011;71269;44.108;3.074;2023-08-30T12:05:45;5.20;;;2.65;;
81716;SDS011;71269;44.108;3.074;2023-08-30T12:08:24;4.95;;;2.50;;
81716;SDS011;71269;44.108;3.074;2023-08-30T12:10:51;4.93;;;2.40;;
81716;SDS011;71269;44.108;3.074;2023-08-30T12:13:27;4.45;;;2.28;;
81716;SDS011;71269;44.108;3.074;2023-08-30T12:16:00;4.30;;;2.10;;
81716;SDS011;71269;44.108;3.074;2023-08-30T12:18:27;5.32;;;2.10;;
81716;SDS011;71269;44.108;3.074;2023-08-30T12:20:58;6.03;;;2.50;;
81716;SDS011;71269;44.108;3.074;2023-08-30T12:23:27;4.45;;;2.20;;
81716;SDS011;71269;44.108;3.074;2023-08-30T12:28:26;6.57;;;2.80;;
81716;SDS011;71269;44.108;3.074;2023-08-30T12:30:52;4.43;;;2.33;;
81716;SDS011;71269;44.108;3.074;2023-08-30T12:33:18;5.35;;;2.20;;
81716;SDS011;71269;44.108;3.074;2023-08-30T12:35:44;3.67;;;2.03;;
81716;SDS011;71269;44.108;3.074;2023-08-30T12:38:09;4.82;;;2.28;;
81716;SDS011;71269;44.108;3.074;2023-08-30T12:40:36;4.78;;;2.05;;
81716;SDS011;71269;44.108;3.074;2023-08-30T12:43:02;4.85;;;2.08;;
81716;SDS011;71269;44.108;3.074;2023-08-30T12:45:28;3.65;;;1.70;;
81716;SDS011;71269;44.108;3.074;2023-08-30T12:47:54;5.05;;;2.30;;
81716;SDS011;71269;44.108;3.074;2023-08-30T12:50:20;4.55;;;2.25;;
81716;SDS011;71269;44.108;3.074;2023-08-30T12:52:46;4.65;;;2.15;;
81716;SDS011;71269;44.108;3.074;2023-08-30T12:55:12;4.45;;;2.00;;
81716;SDS011;71269;44.108;3.074;2023-08-30T12:57:38;3.50;;;1.83;;
81716;SDS011;71269;44.108;3.074;2023-08-30T13:00:04;4.45;;;1.90;;
81716;SDS011;71269;44.108;3.074;2023-08-30T13:02:30;3.95;;;1.75;;
81716;SDS011;71269;44.108;3.074;2023-08-30T13:04:55;4.22;;;2.15;;
81716;SDS011;71269;44.108;3.074;2023-08-30T13:07:20;4.38;;;2.10;;
81716;SDS011;71269;44.108;3.074;2023-08-30T13:09:46;4.13;;;2.10;;
81716;SDS011;71269;44.108;3.074;2023-08-30T13:12:11;3.17;;;1.65;;
81716;SDS011;71269;44.108;3.074;2023-08-30T13:14:36;3.90;;;2.03;;
81716;SDS011;71269;44.108;3.074;2023-08-30T13:17:02;3.63;;;1.70;;
81716;SDS011;71269;44.108;3.074;2023-08-30T13:19:27;3.35;;;1.73;;
81716;SDS011;71269;44.108;3.074;2023-08-30T13:21:53;5.93;;;2.03;;
81716;SDS011;71269;44.108;3.074;2023-08-30T13:24:19;3.65;;;1.88;;
81716;SDS011;71269;44.108;3.074;2023-08-30T13:26:45;4.38;;;1.90;;
81716;SDS011;71269;44.108;3.074;2023-08-30T13:29:11;4.30;;;1.98;;
81716;SDS011;71269;44.108;3.074;2023-08-30T13:31:36;4.50;;;2.17;;
81716;SDS011;71269;44.108;3.074;2023-08-30T13:34:02;3.92;;;1.80;;
81716;SDS011;71269;44.108;3.074;2023-08-30T13:36:27;3.50;;;1.70;;
81716;SDS011;71269;44.108;3.074;2023-08-30T13:38:53;10.07;;;2.05;;
81716;SDS011;71269;44.108;3.074;2023-08-30T13:41:18;4.80;;;2.00;;
81716;SDS011;71269;44.108;3.074;2023-08-30T13:43:44;3.67;;;1.73;;
81716;SDS011;71269;44.108;3.074;2023-08-30T13:46:09;5.00;;;2.00;;
81716;SDS011;71269;44.108;3.074;2023-08-30T13:48:35;4.03;;;2.03;;
81716;SDS011;71269;44.108;3.074;2023-08-30T13:51:01;5.25;;;1.98;;
81716;SDS011;71269;44.108;3.074;2023-08-30T13:53:26;4.20;;;2.13;;
81716;SDS011;71269;44.108;3.074;2023-08-30T13:55:53;4.57;;;1.70;;
81716;SDS011;71269;44.108;3.074;2023-08-30T13:58:18;3.70;;;1.80;;
81716;SDS011;71269;44.108;3.074;2023-08-30T14:00:44;4.38;;;1.88;;
81716;SDS011;71269;44.108;3.074;2023-08-30T14:03:10;4.40;;;2.20;;
81716;SDS011;71269;44.108;3.074;2023-08-30T14:05:35;5.05;;;1.98;;
81716;SDS011;71269;44.108;3.074;2023-08-30T14:08:01;3.58;;;1.95;;
81716;SDS011;71269;44.108;3.074;2023-08-30T14:10:26;5.00;;;2.33;;
81716;SDS011;71269;44.108;3.074;2023-08-30T14:12:51;3.42;;;1.88;;
81716;SDS011;71269;44.108;3.074;2023-08-30T14:15:17;6.10;;;2.03;;
81716;SDS011;71269;44.108;3.074;2023-08-30T14:17:43;4.28;;;2.10;;
81716;SDS011;71269;44.108;3.074;2023-08-30T14:20:08;5.90;;;2.00;;
81716;SDS011;71269;44.108;3.074;2023-08-30T14:22:34;4.68;;;1.90;;
81716;SDS011;71269;44.108;3.074;2023-08-30T14:25:00;5.10;;;2.40;;
81716;SDS011;71269;44.108;3.074;2023-08-30T14:27:27;5.50;;;2.00;;
81716;SDS011;71269;44.108;3.074;2023-08-30T14:29:52;3.13;;;1.85;;
81716;SDS011;71269;44.108;3.074;2023-08-30T14:32:18;5.13;;;2.10;;
81716;SDS011;71269;44.108;3.074;2023-08-30T14:34:43;4.97;;;2.20;;
81716;SDS011;71269;44.108;3.074;2023-08-30T14:37:09;4.80;;;2.13;;
81716;SDS011;71269;44.108;3.074;2023-08-30T14:39:34;4.32;;;2.20;;
81716;SDS011;71269;44.108;3.074;2023-08-30T14:41:59;4.95;;;2.15;;
81716;SDS011;71269;44.108;3.074;2023-08-30T14:44:25;4.35;;;2.20;;
81716;SDS011;71269;44.108;3.074;2023-08-30T14:46:51;5.28;;;2.20;;
81716;SDS011;71269;44.108;3.074;2023-08-30T14:49:17;5.15;;;2.35;;
81716;SDS011;71269;44.108;3.074;2023-08-30T14:51:42;5.43;;;1.98;;